createdAt,value
2022-09-28T00:00:40.386Z,19.78
2022-09-28T00:03:07.782Z,20.00
2022-09-28T00:05:35.507Z,20.13
2022-09-28T00:08:02.565Z,20.20
2022-09-28T00:10:29.764Z,20.24
2022-09-28T00:12:59.402Z,20.29
2022-09-28T00:15:26.528Z,20.29
2022-09-28T00:17:53.589Z,20.28
2022-09-28T00:20:20.723Z,20.38
2022-09-28T00:22:47.767Z,20.43
2022-09-28T00:25:15.444Z,20.40
2022-09-28T00:27:42.524Z,20.41
2022-09-28T00:30:11.505Z,20.39
2022-09-28T00:32:38.549Z,20.44
2022-09-28T00:35:07.029Z,20.49
2022-09-28T00:37:34.110Z,20.39
2022-09-28T00:40:02.027Z,20.41
2022-09-28T00:42:29.197Z,20.40
2022-09-28T00:44:57.548Z,20.34
2022-09-28T00:47:46.808Z,20.11
2022-09-28T00:50:22.588Z,20.27
2022-09-28T00:52:55.542Z,20.27
2022-09-28T00:55:31.893Z,20.26
2022-09-28T00:58:03.877Z,20.22
2022-09-28T01:00:31.090Z,20.26
2022-09-28T01:02:59.669Z,20.25
2022-09-28T01:05:27.908Z,20.24
2022-09-28T01:07:57.608Z,20.15
2022-09-28T01:10:25.229Z,20.14
2022-09-28T01:12:52.287Z,20.13
2022-09-28T01:15:21.649Z,20.14
2022-09-28T01:18:08.469Z,20.09
2022-09-28T01:20:59.808Z,20.00
2022-09-28T01:24:00.404Z,20.05
2022-09-28T01:26:50.925Z,20.15
2022-09-28T01:29:31.645Z,20.10
2022-09-28T01:32:08.025Z,20.06
2022-09-28T01:34:45.944Z,20.11
2022-09-28T01:37:20.668Z,20.16
2022-09-28T01:39:51.925Z,20.04
2022-09-28T01:42:27.384Z,19.96
2022-09-28T01:45:03.684Z,20.06
2022-09-28T01:47:38.622Z,19.91
2022-09-28T01:50:12.902Z,20.03
2022-09-28T01:52:50.125Z,20.01
2022-09-28T01:55:28.186Z,20.05
2022-09-28T01:58:04.905Z,19.97
2022-09-28T02:00:34.940Z,20.08
2022-09-28T02:03:10.348Z,20.01
2022-09-28T02:05:40.649Z,19.97
2022-09-28T02:08:13.471Z,19.73
2022-09-28T02:10:48.243Z,19.84
2022-09-28T02:13:22.404Z,19.67
2022-09-28T02:15:53.743Z,19.64
2022-09-28T02:18:20.844Z,19.80
2022-09-28T02:20:57.066Z,19.71
2022-09-28T02:23:28.644Z,19.57
2022-09-28T02:26:04.125Z,19.59
2022-09-28T02:28:32.945Z,19.76
2022-09-28T02:31:01.463Z,19.76
2022-09-28T02:33:35.064Z,19.83
2022-09-28T02:36:03.205Z,19.69
2022-09-28T02:38:30.687Z,19.87
2022-09-28T02:41:05.605Z,19.89
2022-09-28T02:43:52.644Z,19.92
2022-09-28T02:46:30.542Z,19.86
2022-09-28T02:49:22.294Z,19.54
2022-09-28T02:52:06.103Z,19.71
2022-09-28T02:54:58.844Z,19.69
2022-09-28T02:57:40.024Z,19.73
2022-09-28T03:00:15.545Z,19.80
2022-09-28T03:02:59.312Z,19.83
2022-09-28T03:05:37.424Z,19.37
2022-09-28T03:08:12.985Z,19.48
2022-09-28T03:10:47.465Z,19.63
2022-09-28T03:13:16.429Z,19.73
2022-09-28T03:15:48.604Z,19.74
2022-09-28T03:18:16.764Z,19.77
2022-09-28T03:20:43.843Z,19.75
2022-09-28T03:23:26.137Z,19.83
2022-09-28T03:25:53.332Z,19.83
2022-09-28T03:28:20.405Z,19.85
2022-09-28T03:30:49.044Z,19.86
2022-09-28T03:33:16.364Z,19.86
2022-09-28T03:35:46.822Z,19.84
2022-09-28T03:38:14.143Z,19.88
2022-09-28T03:40:41.195Z,19.85
2022-09-28T03:43:08.445Z,19.87
2022-09-28T03:45:35.518Z,19.89
2022-09-28T03:48:04.155Z,19.92
2022-09-28T03:50:31.204Z,19.94
2022-09-28T03:53:02.844Z,19.92
2022-09-28T03:55:29.906Z,19.92
2022-09-28T03:57:56.922Z,19.91
2022-09-28T04:00:23.963Z,19.90
2022-09-28T04:02:51.030Z,19.89
2022-09-28T04:05:19.502Z,19.92
2022-09-28T04:07:46.527Z,19.89
2022-09-28T04:10:13.767Z,19.93
2022-09-28T04:12:40.805Z,19.92
2022-09-28T04:15:08.586Z,19.90
2022-09-28T04:17:39.972Z,19.88
2022-09-28T04:20:08.064Z,19.89
2022-09-28T04:22:36.596Z,19.98
2022-09-28T04:25:03.944Z,19.92
2022-09-28T04:27:30.984Z,19.91
2022-09-28T04:29:58.024Z,19.88
2022-09-28T04:32:25.125Z,19.90
2022-09-28T04:34:52.204Z,19.89
2022-09-28T04:37:19.285Z,19.93
2022-09-28T04:39:48.696Z,19.93
2022-09-28T04:42:15.844Z,19.90
2022-09-28T04:44:43.247Z,19.87
2022-09-28T04:47:10.286Z,19.81
2022-09-28T04:49:37.328Z,19.91
2022-09-28T04:52:05.046Z,19.89
2022-09-28T04:54:32.044Z,19.91
2022-09-28T04:57:00.606Z,19.89
2022-09-28T04:59:27.744Z,19.91
2022-09-28T05:01:54.894Z,19.96
2022-09-28T05:04:25.779Z,19.93
2022-09-28T05:06:53.286Z,19.95
2022-09-28T05:09:20.343Z,19.91
2022-09-28T05:11:49.926Z,19.86
2022-09-28T05:14:18.446Z,19.75
2022-09-28T05:16:45.880Z,19.79
2022-09-28T05:19:13.191Z,19.76
2022-09-28T05:21:43.547Z,19.79
2022-09-28T05:24:11.016Z,19.76
2022-09-28T05:26:38.346Z,19.77
2022-09-28T05:29:05.487Z,19.52
2022-09-28T05:31:33.915Z,19.68
2022-09-28T05:34:01.043Z,19.81
2022-09-28T05:36:28.163Z,19.52
2022-09-28T05:38:55.305Z,19.36
2022-09-28T05:41:22.475Z,19.28
2022-09-28T05:43:49.524Z,19.22
2022-09-28T05:46:17.601Z,18.94
2022-09-28T05:48:46.125Z,19.00
2022-09-28T05:51:13.183Z,19.01
2022-09-28T05:53:40.245Z,18.81
2022-09-28T05:56:07.325Z,18.94
2022-09-28T05:58:34.476Z,18.93
2022-09-28T06:01:01.564Z,19.00
2022-09-28T06:03:28.744Z,18.99
2022-09-28T06:06:00.146Z,19.01
2022-09-28T06:08:27.265Z,19.02
2022-09-28T06:10:54.284Z,19.00
2022-09-28T06:13:21.306Z,19.01
2022-09-28T06:15:48.426Z,19.00
2022-09-28T06:18:15.506Z,18.98
2022-09-28T06:20:43.266Z,18.82
2022-09-28T06:23:13.284Z,18.92
2022-09-28T06:25:40.786Z,18.94
2022-09-28T06:28:11.101Z,19.01
2022-09-28T06:30:39.449Z,19.04
2022-09-28T06:33:08.440Z,19.05
2022-09-28T06:35:35.826Z,19.07
2022-09-28T06:38:03.088Z,19.03
2022-09-28T06:40:32.357Z,18.85
2022-09-28T06:43:01.046Z,19.01
2022-09-28T06:45:30.226Z,19.08
2022-09-28T06:47:59.265Z,19.10
2022-09-28T06:50:28.205Z,19.04
2022-09-28T06:52:56.047Z,19.30
2022-09-28T06:55:23.425Z,19.57
2022-09-28T06:57:58.745Z,19.77
2022-09-28T07:00:26.108Z,19.72
2022-09-28T07:02:53.217Z,19.65
2022-09-28T07:05:20.625Z,19.61
2022-09-28T07:07:47.666Z,19.48
2022-09-28T07:10:14.864Z,19.51
2022-09-28T07:12:41.927Z,19.42
2022-09-28T07:15:10.946Z,19.53
2022-09-28T07:17:52.404Z,19.57
2022-09-28T07:20:25.111Z,19.45
2022-09-28T07:22:53.904Z,19.58
2022-09-28T07:25:21.330Z,19.61
2022-09-28T07:27:48.507Z,19.40
2022-09-28T07:30:17.837Z,19.44
2022-09-28T07:32:45.605Z,19.41
2022-09-28T07:35:12.666Z,19.62
2022-09-28T07:37:39.708Z,19.52
2022-09-28T07:40:09.171Z,19.70
2022-09-28T07:42:36.524Z,19.70
2022-09-28T07:45:04.057Z,19.86
2022-09-28T07:47:35.292Z,19.96
2022-09-28T07:50:02.647Z,20.33
2022-09-28T07:52:29.744Z,20.52
2022-09-28T07:54:56.844Z,20.55
2022-09-28T07:57:24.626Z,20.68
2022-09-28T07:59:51.668Z,20.67
2022-09-28T08:02:18.726Z,20.87
2022-09-28T08:04:47.326Z,20.73
2022-09-28T08:07:17.128Z,20.57
2022-09-28T08:09:46.567Z,20.53
2022-09-28T08:12:14.266Z,20.45
2022-09-28T08:14:41.344Z,20.53
2022-09-28T08:17:08.426Z,20.48
2022-09-28T08:19:35.686Z,20.35
2022-09-28T08:22:04.165Z,20.32
2022-09-28T08:24:31.844Z,20.33
2022-09-28T08:26:58.865Z,20.30
2022-09-28T08:29:25.950Z,20.29
2022-09-28T08:31:53.006Z,19.96
2022-09-28T08:34:20.027Z,20.08
2022-09-28T08:36:47.105Z,20.25
2022-09-28T08:39:15.585Z,20.30
2022-09-28T08:41:51.131Z,20.31
2022-09-28T08:44:21.405Z,20.33
2022-09-28T08:46:53.824Z,20.14
2022-09-28T08:49:29.307Z,20.08
2022-09-28T08:52:02.845Z,20.21
2022-09-28T08:54:40.396Z,20.18
2022-09-28T08:57:14.188Z,20.29
2022-09-28T08:59:49.613Z,20.22
2022-09-28T09:02:22.845Z,20.17
2022-09-28T09:04:52.645Z,20.20
2022-09-28T09:07:51.793Z,20.21
2022-09-28T09:13:40.326Z,20.25
2022-09-28T09:16:22.734Z,20.11
2022-09-28T09:18:59.326Z,20.34
2022-09-28T09:21:39.985Z,20.43
2022-09-28T09:24:24.564Z,20.40
2022-09-28T09:27:04.805Z,20.25
2022-09-28T09:29:55.117Z,20.34
2022-09-28T09:32:52.608Z,20.29
2022-09-28T09:35:47.885Z,20.34
2022-09-28T09:38:37.936Z,20.26
2022-09-28T09:41:20.898Z,20.28
2022-09-28T09:44:15.267Z,20.34
2022-09-28T09:46:51.605Z,20.39
2022-09-28T09:49:25.105Z,20.47
2022-09-28T09:52:00.387Z,20.34
2022-09-28T09:54:35.970Z,20.50
2022-09-28T09:57:14.348Z,20.49
2022-09-28T09:59:43.338Z,20.58
2022-09-28T10:02:23.209Z,20.51
2022-09-28T10:04:54.970Z,20.49
2022-09-28T10:07:25.984Z,20.51
2022-09-28T10:09:58.409Z,20.49
2022-09-28T10:12:26.608Z,20.45
2022-09-28T10:14:53.804Z,20.52
2022-09-28T10:17:22.664Z,20.49
2022-09-28T10:19:49.739Z,20.53
2022-09-28T10:22:23.248Z,20.54
2022-09-28T10:24:54.145Z,20.55
2022-09-28T10:27:25.997Z,20.54
2022-09-28T10:29:56.384Z,20.53
2022-09-28T10:32:27.144Z,20.51
2022-09-28T10:35:24.066Z,20.44
2022-09-28T10:37:57.125Z,20.16
2022-09-28T10:40:34.431Z,20.42
2022-09-28T10:43:03.747Z,20.58
2022-09-28T10:45:37.254Z,20.27
2022-09-28T10:48:18.165Z,20.55
2022-09-28T10:51:00.083Z,20.53
2022-09-28T10:53:27.748Z,20.57
2022-09-28T10:56:01.563Z,20.60
2022-09-28T10:58:36.444Z,20.63
2022-09-28T11:01:09.819Z,20.67
2022-09-28T11:03:51.164Z,20.45
2022-09-28T11:06:26.145Z,20.45
2022-09-28T11:08:56.805Z,20.47
2022-09-28T11:11:24.365Z,20.46
2022-09-28T11:13:54.506Z,20.66
2022-09-28T11:16:28.358Z,20.48
2022-09-28T11:18:59.296Z,20.60
2022-09-28T11:21:29.986Z,20.59
2022-09-28T11:24:03.308Z,20.54
2022-09-28T11:26:38.466Z,20.61
2022-09-28T11:29:06.892Z,20.66
2022-09-28T11:31:34.667Z,20.63
2022-09-28T11:34:13.527Z,20.21
2022-09-28T11:37:22.546Z,20.42
2022-09-28T11:40:03.363Z,20.59
2022-09-28T11:42:47.744Z,20.69
2022-09-28T11:45:49.809Z,20.71
2022-09-28T11:48:25.004Z,20.63
2022-09-28T11:51:00.764Z,20.69
2022-09-28T11:53:36.945Z,20.69
2022-09-28T11:56:16.924Z,20.71
2022-09-28T11:58:51.067Z,20.76
2022-09-28T12:01:27.364Z,20.84
2022-09-28T12:04:03.533Z,20.85
2022-09-28T12:06:41.205Z,20.90
2022-09-28T12:09:20.753Z,20.91
2022-09-28T12:11:56.693Z,20.82
2022-09-28T12:14:29.766Z,20.84
2022-09-28T12:17:08.043Z,20.56
2022-09-28T12:19:48.906Z,20.78
2022-09-28T12:22:25.486Z,20.85
2022-09-28T12:24:58.764Z,20.91
2022-09-28T12:27:37.912Z,20.95
2022-09-28T12:30:14.363Z,21.07
2022-09-28T12:32:47.411Z,21.16
2022-09-28T12:35:22.224Z,20.85
2022-09-28T12:38:22.286Z,21.04
2022-09-28T12:40:57.320Z,21.56
2022-09-28T12:44:08.921Z,21.55
2022-09-28T12:47:06.087Z,21.51
2022-09-28T12:50:36.238Z,21.43
2022-09-28T12:52:42.849Z,21.41
2022-09-28T12:55:33.787Z,21.38
2022-09-28T12:58:17.965Z,21.35
2022-09-28T13:01:02.727Z,21.17
2022-09-28T13:03:57.185Z,21.18
2022-09-28T13:06:46.340Z,21.08
2022-09-28T13:09:22.645Z,21.07
2022-09-28T13:12:05.344Z,20.86
2022-09-28T13:14:59.586Z,20.91
2022-09-28T13:17:47.784Z,20.89
2022-09-28T13:20:36.064Z,20.81
2022-09-28T13:23:15.708Z,20.88
2022-09-28T13:25:52.802Z,20.91
2022-09-28T13:28:27.181Z,20.95
2022-09-28T13:33:35.781Z,20.77
2022-09-28T13:36:30.624Z,20.74
2022-09-28T13:39:06.106Z,20.82
2022-09-28T13:41:44.772Z,20.76
2022-09-28T13:44:42.207Z,20.84
2022-09-28T13:47:38.465Z,20.82
2022-09-28T13:50:31.068Z,20.93
2022-09-28T13:53:14.125Z,21.00
2022-09-28T13:55:56.730Z,21.04
2022-09-28T13:58:29.564Z,20.68
2022-09-28T14:01:09.687Z,20.73
2022-09-28T14:03:58.747Z,20.87
2022-09-28T14:06:32.508Z,20.85
2022-09-28T14:09:40.265Z,20.80
2022-09-28T14:12:44.785Z,20.89
2022-09-28T14:15:43.753Z,20.90
2022-09-28T14:18:28.249Z,20.91
2022-09-28T14:21:38.186Z,20.88
2022-09-28T14:24:27.787Z,20.92
2022-09-28T14:27:47.471Z,20.80
2022-09-28T14:30:26.171Z,20.87
2022-09-28T14:33:00.285Z,20.69
2022-09-28T14:35:34.006Z,20.61
2022-09-28T14:38:06.225Z,20.71
2022-09-28T14:40:59.116Z,20.60
2022-09-28T14:43:35.281Z,20.77
2022-09-28T14:46:27.238Z,20.86
2022-09-28T14:48:56.930Z,20.83
2022-09-28T14:52:00.463Z,20.84
2022-09-28T14:54:30.435Z,20.83
2022-09-28T14:57:08.371Z,20.90
2022-09-28T14:59:42.376Z,20.88
2022-09-28T15:02:19.956Z,20.88
2022-09-28T15:04:52.291Z,20.86
2022-09-28T15:07:25.537Z,20.79
2022-09-28T15:09:55.175Z,20.84
2022-09-28T15:12:26.623Z,20.75
2022-09-28T15:14:57.465Z,20.76
2022-09-28T15:17:29.997Z,20.54
2022-09-28T15:20:20.374Z,20.69
2022-09-28T15:22:53.278Z,20.72
2022-09-28T15:25:22.733Z,20.46
2022-09-28T15:27:53.495Z,20.51
2022-09-28T15:30:27.966Z,20.25
2022-09-28T15:32:57.204Z,19.99
2022-09-28T15:35:26.684Z,20.07
2022-09-28T15:37:55.703Z,20.31
2022-09-28T15:40:34.469Z,20.25
2022-09-28T15:43:02.003Z,20.40
2022-09-28T15:45:35.697Z,20.41
2022-09-28T15:48:19.022Z,20.43
2022-09-28T15:51:04.262Z,20.43
2022-09-28T15:53:34.336Z,20.41
2022-09-28T15:56:06.025Z,20.46
2022-09-28T15:58:33.198Z,20.47
2022-09-28T16:01:23.499Z,20.47
2022-09-28T16:03:50.863Z,20.47
2022-09-28T16:06:18.183Z,20.41
2022-09-28T16:08:47.244Z,20.48
2022-09-28T16:11:20.025Z,20.52
2022-09-28T16:13:57.210Z,20.51
2022-09-28T16:16:28.863Z,20.50
2022-09-28T16:18:59.923Z,20.51
2022-09-28T16:21:43.423Z,20.47
2022-09-28T16:24:22.682Z,20.48
2022-09-28T16:26:58.102Z,20.48
2022-09-28T16:29:32.444Z,20.46
2022-09-28T16:32:34.242Z,20.45
2022-09-28T16:35:27.164Z,20.49
2022-09-28T16:38:03.445Z,20.50
2022-09-28T16:40:33.779Z,19.98
2022-09-28T16:43:05.704Z,20.24
2022-09-28T16:45:32.828Z,20.32
2022-09-28T16:48:00.108Z,20.32
2022-09-28T16:50:27.981Z,20.01
2022-09-28T16:53:01.923Z,19.95
2022-09-28T16:55:40.063Z,20.14
2022-09-28T16:58:09.753Z,20.14
2022-09-28T17:00:36.911Z,20.23
2022-09-28T17:03:13.646Z,20.16
2022-09-28T17:05:40.904Z,20.16
2022-09-28T17:08:14.072Z,20.18
2022-09-28T17:11:09.884Z,20.16
2022-09-28T17:13:35.410Z,20.44
2022-09-28T17:16:05.652Z,20.44
2022-09-28T17:18:35.886Z,20.36
2022-09-28T17:21:05.841Z,20.27
2022-09-28T17:23:33.289Z,20.23
2022-09-28T17:26:03.003Z,20.15
2022-09-28T17:28:33.044Z,20.09
2022-09-28T17:31:01.715Z,20.11
2022-09-28T17:33:28.942Z,20.12
2022-09-28T17:36:01.550Z,20.07
2022-09-28T17:38:29.023Z,20.06
2022-09-28T17:40:56.271Z,20.01
2022-09-28T17:43:23.419Z,20.05
2022-09-28T17:45:50.845Z,20.00
2022-09-28T17:48:20.740Z,19.96
2022-09-28T17:50:47.919Z,19.98
2022-09-28T17:53:15.461Z,19.85
2022-09-28T17:55:42.882Z,19.94
2022-09-28T17:58:16.481Z,19.95
2022-09-28T18:00:45.548Z,19.97
2022-09-28T18:03:15.200Z,19.96
2022-09-28T18:05:44.880Z,19.97
2022-09-28T18:08:15.640Z,19.97
2022-09-28T18:10:42.802Z,19.95
2022-09-28T18:13:10.261Z,19.93
2022-09-28T18:15:37.419Z,19.93
2022-09-28T18:18:04.921Z,19.89
2022-09-28T18:20:35.443Z,19.85
2022-09-28T18:23:04.863Z,19.79
2022-09-28T18:25:32.541Z,19.71
2022-09-28T18:27:59.815Z,19.66
2022-09-28T18:30:28.034Z,19.63
2022-09-28T18:32:55.122Z,19.60
2022-09-28T18:35:23.371Z,19.59
2022-09-28T18:37:50.659Z,19.54
2022-09-28T18:40:20.613Z,19.53
2022-09-28T18:42:50.219Z,19.49
2022-09-28T18:45:18.640Z,19.46
2022-09-28T18:47:46.042Z,19.42
2022-09-28T18:50:13.680Z,19.41
2022-09-28T18:52:41.673Z,19.39
2022-09-28T18:55:09.735Z,19.38
2022-09-28T18:57:39.583Z,19.33
2022-09-28T19:00:11.201Z,19.26
2022-09-28T19:02:39.030Z,19.27
2022-09-28T19:05:08.780Z,19.24
2022-09-28T19:07:35.921Z,19.19
2022-09-28T19:10:03.302Z,19.12
2022-09-28T19:12:30.470Z,19.06
2022-09-28T19:14:59.102Z,19.05
2022-09-28T19:17:26.322Z,19.00
2022-09-28T19:19:53.406Z,18.96
2022-09-28T19:22:21.242Z,18.96
2022-09-28T19:24:48.302Z,18.93
2022-09-28T19:27:15.380Z,18.89
2022-09-28T19:29:42.540Z,18.93
2022-09-28T19:32:11.093Z,18.89
2022-09-28T19:34:38.362Z,18.89
2022-09-28T19:37:05.402Z,18.88
2022-09-28T19:39:32.541Z,18.89
2022-09-28T19:41:59.664Z,18.89
2022-09-28T19:44:29.921Z,18.88
2022-09-28T19:46:59.005Z,18.92
2022-09-28T19:49:28.461Z,18.91
2022-09-28T19:52:11.967Z,18.89
2022-09-28T19:54:40.299Z,18.93
2022-09-28T19:57:07.853Z,18.91
2022-09-28T19:59:35.360Z,18.90
2022-09-28T20:02:02.559Z,18.91
2022-09-28T20:04:31.221Z,18.90
2022-09-28T20:06:58.281Z,18.89
2022-09-28T20:09:25.461Z,18.91
2022-09-28T20:11:52.643Z,18.93
2022-09-28T20:14:24.605Z,18.91
2022-09-28T20:16:55.761Z,18.89
2022-09-28T20:19:22.860Z,18.89
2022-09-28T20:21:51.502Z,18.89
2022-09-28T20:24:18.577Z,18.91
2022-09-28T20:26:46.093Z,18.93
2022-09-28T20:29:13.611Z,18.92
2022-09-28T20:31:40.841Z,18.94
2022-09-28T20:34:07.941Z,18.94
2022-09-28T20:36:38.672Z,18.95
2022-09-28T20:39:07.702Z,18.97
2022-09-28T20:41:34.819Z,18.98
2022-09-28T20:44:05.715Z,18.98
2022-09-28T20:46:33.878Z,18.98
2022-09-28T20:49:01.122Z,18.98
2022-09-28T20:51:28.352Z,18.97
2022-09-28T20:53:57.330Z,18.98
2022-09-28T20:56:28.000Z,18.97
2022-09-28T20:58:55.470Z,19.00
2022-09-28T21:01:25.082Z,19.00
2022-09-28T21:03:54.101Z,19.00
2022-09-28T21:06:23.601Z,19.02
2022-09-28T21:08:51.581Z,19.06
2022-09-28T21:11:21.120Z,19.08
2022-09-28T21:13:53.581Z,19.08
2022-09-28T21:16:21.042Z,19.09
2022-09-28T21:18:48.342Z,19.09
2022-09-28T21:21:17.648Z,19.11
2022-09-28T21:23:45.195Z,19.11
2022-09-28T21:26:14.662Z,19.09
2022-09-28T21:28:42.542Z,19.08
2022-09-28T21:31:12.235Z,19.06
2022-09-28T21:33:39.483Z,19.06
2022-09-28T21:36:08.460Z,19.07
2022-09-28T21:38:35.776Z,19.08
2022-09-28T21:41:03.328Z,19.07
2022-09-28T21:43:31.556Z,19.08
2022-09-28T21:45:59.259Z,19.14
2022-09-28T21:48:29.840Z,19.10
2022-09-28T21:50:57.561Z,19.10
2022-09-28T21:53:26.381Z,19.13
2022-09-28T21:55:56.441Z,19.14
2022-09-28T21:58:25.999Z,19.17
2022-09-28T22:00:59.720Z,19.23
2022-09-28T22:03:28.500Z,19.22
2022-09-28T22:05:56.220Z,19.20
2022-09-28T22:08:24.440Z,19.27
2022-09-28T22:10:57.841Z,19.28
2022-09-28T22:13:24.941Z,19.27
2022-09-28T22:15:53.111Z,19.27
2022-09-28T22:18:20.222Z,19.25
2022-09-28T22:20:48.760Z,19.28
2022-09-28T22:23:15.900Z,19.31
2022-09-28T22:25:42.941Z,19.29
2022-09-28T22:28:10.020Z,19.29
2022-09-28T22:30:37.341Z,19.28
2022-09-28T22:33:04.440Z,19.28
2022-09-28T22:35:31.500Z,19.32
2022-09-28T22:38:01.199Z,19.31
2022-09-28T22:40:28.294Z,19.29
2022-09-28T22:42:55.382Z,19.28
2022-09-28T22:45:22.462Z,19.26
2022-09-28T22:47:49.559Z,19.28
2022-09-28T22:50:16.723Z,19.29
2022-09-28T22:52:43.720Z,19.26
2022-09-28T22:55:12.201Z,19.25
2022-09-28T22:57:39.200Z,19.24
2022-09-28T23:00:07.786Z,19.26
2022-09-28T23:02:34.922Z,19.27
2022-09-28T23:05:02.061Z,19.28
2022-09-28T23:07:29.079Z,19.22
2022-09-28T23:09:56.200Z,19.27
2022-09-28T23:12:24.679Z,19.29
2022-09-28T23:14:51.739Z,19.90
2022-09-28T23:17:19.021Z,20.15
2022-09-28T23:19:46.061Z,20.22
2022-09-28T23:22:13.561Z,20.34
2022-09-28T23:24:40.579Z,20.48
2022-09-28T23:27:07.664Z,20.40
2022-09-28T23:29:36.362Z,20.56
2022-09-28T23:32:03.400Z,20.65
2022-09-28T23:34:30.479Z,20.68
2022-09-28T23:36:57.559Z,20.74
2022-09-28T23:39:24.601Z,20.81
2022-09-28T23:41:51.680Z,20.87
2022-09-28T23:44:18.781Z,20.76
2022-09-28T23:46:47.353Z,20.80
2022-09-28T23:49:14.511Z,20.73
2022-09-28T23:51:41.579Z,20.76
2022-09-28T23:54:08.801Z,20.82
2022-09-28T23:56:35.899Z,20.77
2022-09-28T23:59:02.959Z,20.83
